sensor_id;sensor_type;location;lat;lon;timestamp;pressure;altitude;pressure_sealevel;temperature;humidity
74474;BME280;62922;-6.168;106.796;2023-06-24T00:01:17;100972.59;;;30.64;63.23
74474;BME280;62922;-6.168;106.796;2023-06-24T00:03:44;100930.16;;;30.43;63.08
74474;BME280;62922;-6.168;106.796;2023-06-24T00:06:13;100987.41;;;30.78;63.35
74474;BME280;62922;-6.168;106.796;2023-06-24T00:08:48;100988.53;;;30.77;63.43
74474;BME280;62922;-6.168;106.796;2023-06-24T00:11:15;100979.09;;;30.73;63.80
74474;BME280;62922;-6.168;106.796;2023-06-24T00:13:43;100990.34;;;30.73;63.51
74474;BME280;62922;-6.168;106.796;2023-06-24T00:16:10;100986.22;;;30.71;63.82
74474;BME280;62922;-6.168;106.796;2023-06-24T00:18:37;101008.75;;;30.71;63.60
74474;BME280;62922;-6.168;106.796;2023-06-24T00:21:07;100986.00;;;30.58;63.76
74474;BME280;62922;-6.168;106.796;2023-06-24T00:23:33;100963.94;;;30.43;63.85
74474;BME280;62922;-6.168;106.796;2023-06-24T00:26:00;101018.88;;;30.72;64.08
74474;BME280;62922;-6.168;106.796;2023-06-24T00:28:27;101001.59;;;30.64;64.04
74474;BME280;62922;-6.168;106.796;2023-06-24T00:30:54;100974.88;;;30.45;63.97
74474;BME280;62922;-6.168;106.796;2023-06-24T00:33:22;100987.19;;;30.57;63.58
74474;BME280;62922;-6.168;106.796;2023-06-24T00:35:49;100936.75;;;30.30;63.73
74474;BME280;62922;-6.168;106.796;2023-06-24T00:38:15;100971.75;;;30.46;64.30
74474;BME280;62922;-6.168;106.796;2023-06-24T00:40:42;101022.84;;;30.71;63.89
74474;BME280;62922;-6.168;106.796;2023-06-24T00:43:09;101024.81;;;30.61;64.19
74474;BME280;62922;-6.168;106.796;2023-06-24T00:45:35;100988.28;;;30.39;64.26
74474;BME280;62922;-6.168;106.796;2023-06-24T00:48:02;101009.19;;;30.47;64.15
74474;BME280;62922;-6.168;106.796;2023-06-24T00:50:29;101037.03;;;30.57;64.25
74474;BME280;62922;-6.168;106.796;2023-06-24T00:52:55;101027.78;;;30.56;64.51
74474;BME280;62922;-6.168;106.796;2023-06-24T00:55:22;101004.00;;;30.40;64.77
74474;BME280;62922;-6.168;106.796;2023-06-24T00:57:51;101040.69;;;30.57;64.66
74474;BME280;62922;-6.168;106.796;2023-06-24T01:00:21;101041.88;;;30.56;64.44
74474;BME280;62922;-6.168;106.796;2023-06-24T01:02:48;101022.94;;;30.48;64.32
74474;BME280;62922;-6.168;106.796;2023-06-24T01:05:15;101024.47;;;30.54;64.29
74474;BME280;62922;-6.168;106.796;2023-06-24T01:07:42;101034.03;;;30.53;64.84
74474;BME280;62922;-6.168;106.796;2023-06-24T01:10:10;101039.69;;;30.62;64.26
74474;BME280;62922;-6.168;106.796;2023-06-24T01:12:39;101034.06;;;30.62;64.78
74474;BME280;62922;-6.168;106.796;2023-06-24T01:15:07;101021.47;;;30.51;64.62
74474;BME280;62922;-6.168;106.796;2023-06-24T01:20:36;101032.41;;;30.61;64.47
74474;BME280;62922;-6.168;106.796;2023-06-24T01:31:37;101038.06;;;30.61;64.61
74474;BME280;62922;-6.168;106.796;2023-06-24T01:36:45;100991.06;;;30.31;64.84
74474;BME280;62922;-6.168;106.796;2023-06-24T01:39:16;101040.38;;;30.59;64.67
74474;BME280;62922;-6.168;106.796;2023-06-24T01:41:49;101026.94;;;30.56;64.73
74474;BME280;62922;-6.168;106.796;2023-06-24T01:44:18;100951.22;;;30.15;64.37
74474;BME280;62922;-6.168;106.796;2023-06-24T01:46:48;100974.47;;;30.29;64.66
74474;BME280;62922;-6.168;106.796;2023-06-24T01:49:19;100995.56;;;30.40;64.20
74474;BME280;62922;-6.168;106.796;2023-06-24T01:51:47;101025.78;;;30.57;63.97
74474;BME280;62922;-6.168;106.796;2023-06-24T01:54:17;101018.66;;;30.59;64.00
74474;BME280;62922;-6.168;106.796;2023-06-24T01:56:47;100981.97;;;30.34;63.93
74474;BME280;62922;-6.168;106.796;2023-06-24T01:59:17;100982.13;;;30.37;63.73
74474;BME280;62922;-6.168;106.796;2023-06-24T02:01:44;100996.41;;;30.49;64.18
74474;BME280;62922;-6.168;106.796;2023-06-24T02:04:11;101011.53;;;30.62;64.03
74474;BME280;62922;-6.168;106.796;2023-06-24T02:06:40;100956.94;;;30.32;64.12
74474;BME280;62922;-6.168;106.796;2023-06-24T02:09:08;100968.06;;;30.37;63.84
74474;BME280;62922;-6.168;106.796;2023-06-24T02:11:36;100968.06;;;30.37;64.01
74474;BME280;62922;-6.168;106.796;2023-06-24T02:14:05;100964.91;;;30.39;64.02
74474;BME280;62922;-6.168;106.796;2023-06-24T02:16:34;101004.44;;;30.64;64.12
74474;BME280;62922;-6.168;106.796;2023-06-24T02:19:05;101010.56;;;30.66;63.90
74474;BME280;62922;-6.168;106.796;2023-06-24T02:21:34;101007.91;;;30.61;64.19
74474;BME280;62922;-6.168;106.796;2023-06-24T02:24:02;100980.03;;;30.51;64.11
74474;BME280;62922;-6.168;106.796;2023-06-24T02:26:31;100999.13;;;30.63;64.04
74474;BME280;62922;-6.168;106.796;2023-06-24T02:28:58;101006.28;;;30.69;63.99
74474;BME280;62922;-6.168;106.796;2023-06-24T02:31:25;100959.31;;;30.47;63.19
74474;BME280;62922;-6.168;106.796;2023-06-24T02:33:51;101000.66;;;30.69;63.63
74474;BME280;62922;-6.168;106.796;2023-06-24T02:36:18;100994.97;;;30.60;63.91
74474;BME280;62922;-6.168;106.796;2023-06-24T02:38:44;100995.81;;;30.69;63.77
74474;BME280;62922;-6.168;106.796;2023-06-24T02:41:10;100986.22;;;30.71;64.03
74474;BME280;62922;-6.168;106.796;2023-06-24T02:43:37;100946.38;;;30.46;63.93
74474;BME280;62922;-6.168;106.796;2023-06-24T02:46:04;100991.38;;;30.77;63.78
74474;BME280;62922;-6.168;106.796;2023-06-24T02:48:33;100966.66;;;30.65;63.62
74474;BME280;62922;-6.168;106.796;2023-06-24T02:51:02;100914.56;;;30.37;63.81
74474;BME280;62922;-6.168;106.796;2023-06-24T02:53:29;100936.13;;;30.50;64.00
74474;BME280;62922;-6.168;106.796;2023-06-24T02:55:58;100976.94;;;30.79;63.62
74474;BME280;62922;-6.168;106.796;2023-06-24T02:58:25;100924.03;;;30.50;63.76
74474;BME280;62922;-6.168;106.796;2023-06-24T03:01:00;100968.19;;;30.80;63.78
74474;BME280;62922;-6.168;106.796;2023-06-24T03:03:27;100971.81;;;30.81;63.08
74474;BME280;62922;-6.168;106.796;2023-06-24T03:05:57;100969.88;;;30.81;63.91
74474;BME280;62922;-6.168;106.796;2023-06-24T03:08:24;100963.91;;;30.83;63.59
74474;BME280;62922;-6.168;106.796;2023-06-24T03:10:55;100956.09;;;30.80;63.81
74474;BME280;62922;-6.168;106.796;2023-06-24T03:13:22;100963.09;;;30.82;63.88
74474;BME280;62922;-6.168;106.796;2023-06-24T03:15:49;100950.97;;;30.82;63.66
74474;BME280;62922;-6.168;106.796;2023-06-24T03:18:16;100917.78;;;30.61;64.09
74474;BME280;62922;-6.168;106.796;2023-06-24T03:20:43;100939.72;;;30.82;63.88
74474;BME280;62922;-6.168;106.796;2023-06-24T03:23:10;100941.69;;;30.81;63.67
74474;BME280;62922;-6.168;106.796;2023-06-24T03:25:36;100931.06;;;30.78;63.62
74474;BME280;62922;-6.168;106.796;2023-06-24T03:28:05;100912.97;;;30.71;63.76
74474;BME280;62922;-6.168;106.796;2023-06-24T03:30:34;100927.44;;;30.86;63.63
74474;BME280;62922;-6.168;106.796;2023-06-24T03:33:01;100930.13;;;30.91;63.42
74474;BME280;62922;-6.168;106.796;2023-06-24T03:35:27;100918.50;;;30.93;63.72
74474;BME280;62922;-6.168;106.796;2023-06-24T03:37:55;100914.53;;;30.94;63.27
74474;BME280;62922;-6.168;106.796;2023-06-24T03:40:21;100902.41;;;30.93;63.39
74474;BME280;62922;-6.168;106.796;2023-06-24T03:42:48;100906.22;;;30.97;63.61
74474;BME280;62922;-6.168;106.796;2023-06-24T03:45:14;100897.44;;;30.90;63.31
74474;BME280;62922;-6.168;106.796;2023-06-24T03:47:40;100885.50;;;30.93;63.21
74474;BME280;62922;-6.168;106.796;2023-06-24T03:50:07;100881.03;;;30.92;63.48
74474;BME280;62922;-6.168;106.796;2023-06-24T03:52:36;100846.38;;;30.75;63.78
74474;BME280;62922;-6.168;106.796;2023-06-24T03:55:02;100841.38;;;30.72;63.04
74474;BME280;62922;-6.168;106.796;2023-06-24T03:57:30;100892.63;;;30.99;63.56
74474;BME280;62922;-6.168;106.796;2023-06-24T03:59:57;100883.34;;;30.99;63.28
74474;BME280;62922;-6.168;106.796;2023-06-24T04:02:23;100861.97;;;30.98;63.31
74474;BME280;62922;-6.168;106.796;2023-06-24T04:04:49;100844.75;;;30.82;63.22
74474;BME280;62922;-6.168;106.796;2023-06-24T04:07:17;100870.09;;;30.99;63.48
74474;BME280;62922;-6.168;106.796;2023-06-24T04:09:55;100876.88;;;31.07;63.59
74474;BME280;62922;-6.168;106.796;2023-06-24T04:12:22;100865.13;;;31.05;62.92
74474;BME280;62922;-6.168;106.796;2023-06-24T04:14:49;100853.84;;;31.05;63.01
74474;BME280;62922;-6.168;106.796;2023-06-24T04:17:15;100853.66;;;31.10;62.80
74474;BME280;62922;-6.168;106.796;2023-06-24T04:19:42;100861.47;;;31.13;62.76
74474;BME280;62922;-6.168;106.796;2023-06-24T04:22:08;100854.66;;;31.14;62.89
74474;BME280;62922;-6.168;106.796;2023-06-24T04:24:34;100837.59;;;31.10;62.77
74474;BME280;62922;-6.168;106.796;2023-06-24T04:27:01;100830.81;;;31.11;62.41
74474;BME280;62922;-6.168;106.796;2023-06-24T04:29:29;100834.13;;;31.13;63.09
74474;BME280;62922;-6.168;106.796;2023-06-24T04:31:55;100765.97;;;30.77;62.56
74474;BME280;62922;-6.168;106.796;2023-06-24T04:34:22;100823.16;;;31.12;62.34
74474;BME280;62922;-6.168;106.796;2023-06-24T04:36:48;100820.34;;;31.12;62.56
74474;BME280;62922;-6.168;106.796;2023-06-24T04:39:14;100820.34;;;31.12;63.16
74474;BME280;62922;-6.168;106.796;2023-06-24T04:41:41;100787.06;;;30.97;62.75
74474;BME280;62922;-6.168;106.796;2023-06-24T04:44:07;100722.94;;;30.59;62.87
74474;BME280;62922;-6.168;106.796;2023-06-24T04:46:33;100794.16;;;31.11;63.22
74474;BME280;62922;-6.168;106.796;2023-06-24T04:49:00;100801.59;;;31.16;62.88
74474;BME280;62922;-6.168;106.796;2023-06-24T04:51:29;100752.25;;;30.93;62.60
74474;BME280;62922;-6.168;106.796;2023-06-24T04:53:57;100798.28;;;31.22;62.70
74474;BME280;62922;-6.168;106.796;2023-06-24T04:56:24;100786.81;;;31.19;62.93
74474;BME280;62922;-6.168;106.796;2023-06-24T04:58:50;100764.97;;;31.07;62.87
74474;BME280;62922;-6.168;106.796;2023-06-24T05:01:17;100770.75;;;31.19;62.64
74474;BME280;62922;-6.168;106.796;2023-06-24T05:03:44;100726.69;;;30.98;62.80
74474;BME280;62922;-6.168;106.796;2023-06-24T05:06:10;100778.34;;;31.27;62.48
74474;BME280;62922;-6.168;106.796;2023-06-24T05:08:36;100776.84;;;31.30;62.92
74474;BME280;62922;-6.168;106.796;2023-06-24T05:11:02;100725.38;;;31.04;62.54
74474;BME280;62922;-6.168;106.796;2023-06-24T05:13:29;100760.41;;;31.32;62.97
74474;BME280;62922;-6.168;106.796;2023-06-24T05:15:55;100722.50;;;31.12;62.68
74474;BME280;62922;-6.168;106.796;2023-06-24T05:18:24;100760.28;;;31.37;62.80
74474;BME280;62922;-6.168;106.796;2023-06-24T05:20:51;100758.59;;;31.36;63.05
74474;BME280;62922;-6.168;106.796;2023-06-24T05:23:18;100733.06;;;31.32;62.68
74474;BME280;62922;-6.168;106.796;2023-06-24T05:25:44;100748.47;;;31.43;62.39
74474;BME280;62922;-6.168;106.796;2023-06-24T05:28:10;100726.44;;;31.37;63.08
74474;BME280;62922;-6.168;106.796;2023-06-24T05:30:37;100733.38;;;31.39;62.89
74474;BME280;62922;-6.168;106.796;2023-06-24T05:33:04;100732.72;;;31.42;62.38
74474;BME280;62922;-6.168;106.796;2023-06-24T05:35:33;100721.28;;;31.39;63.13
74474;BME280;62922;-6.168;106.796;2023-06-24T05:37:59;100705.38;;;31.26;62.65
74474;BME280;62922;-6.168;106.796;2023-06-24T05:40:27;100735.19;;;31.44;62.71
74474;BME280;62922;-6.168;106.796;2023-06-24T09:30:03;100657.81;;;32.03;62.43
74474;BME280;62922;-6.168;106.796;2023-06-24T09:32:44;100655.69;;;32.00;62.49
74474;BME280;62922;-6.168;106.796;2023-06-24T09:35:10;100660.72;;;31.95;62.86
74474;BME280;62922;-6.168;106.796;2023-06-24T09:37:37;100621.09;;;31.62;62.64
74474;BME280;62922;-6.168;106.796;2023-06-24T09:40:04;100638.44;;;31.73;62.37
74474;BME280;62922;-6.168;106.796;2023-06-24T09:42:32;100679.47;;;31.99;62.46
74474;BME280;62922;-6.168;106.796;2023-06-24T09:44:58;100687.09;;;31.99;62.51
74474;BME280;62922;-6.168;106.796;2023-06-24T09:47:25;100685.78;;;31.96;62.94
74474;BME280;62922;-6.168;106.796;2023-06-24T09:49:54;100689.09;;;31.98;62.41
74474;BME280;62922;-6.168;106.796;2023-06-24T09:52:23;100659.66;;;31.79;62.40
74474;BME280;62922;-6.168;106.796;2023-06-24T09:54:54;100677.88;;;31.90;63.16
74474;BME280;62922;-6.168;106.796;2023-06-24T09:57:28;100702.84;;;32.00;62.68
74474;BME280;62922;-6.168;106.796;2023-06-24T09:59:56;100700.38;;;31.98;62.63
74474;BME280;62922;-6.168;106.796;2023-06-24T10:02:25;100686.63;;;31.97;63.11
74474;BME280;62922;-6.168;106.796;2023-06-24T10:04:52;100656.50;;;31.80;63.43
74474;BME280;62922;-6.168;106.796;2023-06-24T10:07:20;100680.34;;;31.91;63.18
74474;BME280;62922;-6.168;106.796;2023-06-24T10:09:47;100671.22;;;31.86;63.47
74474;BME280;62922;-6.168;106.796;2023-06-24T10:12:14;100666.06;;;31.88;62.96
74474;BME280;62922;-6.168;106.796;2023-06-24T10:14:41;100683.78;;;31.97;62.95
74474;BME280;62922;-6.168;106.796;2023-06-24T10:17:07;100645.28;;;31.72;63.82
74474;BME280;62922;-6.168;106.796;2023-06-24T10:19:45;100697.56;;;31.98;63.51
74474;BME280;62922;-6.168;106.796;2023-06-24T10:22:11;100685.28;;;31.94;63.51
74474;BME280;62922;-6.168;106.796;2023-06-24T10:24:40;100663.63;;;31.78;63.77
74474;BME280;62922;-6.168;106.796;2023-06-24T10:27:21;100678.91;;;31.77;64.12
74474;BME280;62922;-6.168;106.796;2023-06-24T10:29:51;100706.09;;;31.90;63.57
74474;BME280;62922;-6.168;106.796;2023-06-24T10:32:19;100707.22;;;31.97;63.52
74474;BME280;62922;-6.168;106.796;2023-06-24T10:34:47;100688.00;;;31.82;63.60
74474;BME280;62922;-6.168;106.796;2023-06-24T10:39:56;100640.38;;;31.60;63.97
74474;BME280;62922;-6.168;106.796;2023-06-24T10:45:15;100666.66;;;31.73;64.08
74474;BME280;62922;-6.168;106.796;2023-06-24T10:47:49;100673.50;;;31.72;63.61
74474;BME280;62922;-6.168;106.796;2023-06-24T10:50:20;100736.59;;;31.96;63.89
74474;BME280;62922;-6.168;106.796;2023-06-24T10:52:48;100739.06;;;31.98;64.46
74474;BME280;62922;-6.168;106.796;2023-06-24T10:55:17;100730.94;;;31.96;64.14
74474;BME280;62922;-6.168;106.796;2023-06-24T10:57:47;100733.28;;;31.94;64.87
74474;BME280;62922;-6.168;106.796;2023-06-24T11:00:14;100740.94;;;31.94;64.74
74474;BME280;62922;-6.168;106.796;2023-06-24T11:02:42;100754.22;;;31.93;65.35
74474;BME280;62922;-6.168;106.796;2023-06-24T11:05:08;100750.22;;;31.94;65.15
74474;BME280;62922;-6.168;106.796;2023-06-24T11:07:40;100741.09;;;31.89;65.25
74474;BME280;62922;-6.168;106.796;2023-06-24T11:10:11;100739.44;;;31.88;64.80
74474;BME280;62922;-6.168;106.796;2023-06-24T11:12:39;100735.78;;;31.87;65.11
74474;BME280;62922;-6.168;106.796;2023-06-24T11:15:08;100747.06;;;31.87;65.41
74474;BME280;62922;-6.168;106.796;2023-06-24T11:17:36;100745.75;;;31.93;64.84
74474;BME280;62922;-6.168;106.796;2023-06-24T11:20:10;100732.69;;;31.80;65.58
74474;BME280;62922;-6.168;106.796;2023-06-24T11:22:37;100745.78;;;31.85;65.56
74474;BME280;62922;-6.168;106.796;2023-06-24T11:25:10;100728.88;;;31.76;65.47
74474;BME280;62922;-6.168;106.796;2023-06-24T11:27:40;100712.66;;;31.73;65.43
74474;BME280;62922;-6.168;106.796;2023-06-24T11:30:07;100700.72;;;31.68;65.30
74474;BME280;62922;-6.168;106.796;2023-06-24T11:32:37;100739.13;;;31.89;65.48
74474;BME280;62922;-6.168;106.796;2023-06-24T11:35:05;100736.81;;;31.83;65.04
74474;BME280;62922;-6.168;106.796;2023-06-24T11:37:32;100703.59;;;31.59;65.35
74474;BME280;62922;-6.168;106.796;2023-06-24T11:40:03;100746.78;;;31.80;65.43
74474;BME280;62922;-6.168;106.796;2023-06-24T11:42:31;100760.03;;;31.88;65.46
74474;BME280;62922;-6.168;106.796;2023-06-24T11:45:12;100766.34;;;31.85;65.13
74474;BME280;62922;-6.168;106.796;2023-06-24T11:47:41;100721.53;;;31.54;65.05
74474;BME280;62922;-6.168;106.796;2023-06-24T11:50:13;100788.25;;;31.88;65.23
74474;BME280;62922;-6.168;106.796;2023-06-24T11:52:43;100782.13;;;31.86;65.26
74474;BME280;62922;-6.168;106.796;2023-06-24T12:00:15;100782.78;;;31.83;65.16
74474;BME280;62922;-6.168;106.796;2023-06-24T12:02:42;100788.56;;;31.87;65.22
74474;BME280;62922;-6.168;106.796;2023-06-24T12:05:08;100767.22;;;31.77;64.92
74474;BME280;62922;-6.168;106.796;2023-06-24T12:07:37;100781.66;;;31.76;64.73
74474;BME280;62922;-6.168;106.796;2023-06-24T12:10:04;100786.50;;;31.75;64.84
74474;BME280;62922;-6.168;106.796;2023-06-24T12:12:31;100801.03;;;31.86;65.49
74474;BME280;62922;-6.168;106.796;2023-06-24T12:14:57;100795.41;;;31.86;65.01
74474;BME280;62922;-6.168;106.796;2023-06-24T12:17:23;100784.81;;;31.74;65.02
74474;BME280;62922;-6.168;106.796;2023-06-24T12:19:50;100748.09;;;31.53;65.23
74474;BME280;62922;-6.168;106.796;2023-06-24T12:22:16;100806.88;;;31.81;65.73
74474;BME280;62922;-6.168;106.796;2023-06-24T12:24:42;100772.44;;;31.58;65.69
74474;BME280;62922;-6.168;106.796;2023-06-24T12:27:09;100782.75;;;31.63;65.79
74474;BME280;62922;-6.168;106.796;2023-06-24T12:29:35;100785.88;;;31.61;65.30
74474;BME280;62922;-6.168;106.796;2023-06-24T12:32:02;100817.19;;;31.77;65.16
74474;BME280;62922;-6.168;106.796;2023-06-24T12:34:29;100767.66;;;31.50;65.30
74474;BME280;62922;-6.168;106.796;2023-06-24T12:36:55;100817.19;;;31.77;65.56
74474;BME280;62922;-6.168;106.796;2023-06-24T12:39:21;100820.00;;;31.77;65.04
74474;BME280;62922;-6.168;106.796;2023-06-24T12:41:48;100813.72;;;31.71;65.34
74474;BME280;62922;-6.168;106.796;2023-06-24T12:44:14;100835.59;;;31.83;65.05
74474;BME280;62922;-6.168;106.796;2023-06-24T12:46:41;100828.31;;;31.73;64.73
74474;BME280;62922;-6.168;106.796;2023-06-24T12:49:07;100844.06;;;31.83;64.35
74474;BME280;62922;-6.168;106.796;2023-06-24T12:51:33;100777.00;;;31.42;64.48
74474;BME280;62922;-6.168;106.796;2023-06-24T12:54:00;100830.16;;;31.69;64.45
74474;BME280;62922;-6.168;106.796;2023-06-24T12:56:26;100854.72;;;31.77;64.06
74474;BME280;62922;-6.168;106.796;2023-06-24T12:58:52;100817.28;;;31.51;63.97
74474;BME280;62922;-6.168;106.796;2023-06-24T13:01:19;100853.22;;;31.71;63.82
74474;BME280;62922;-6.168;106.796;2023-06-24T13:03:45;100854.88;;;31.72;63.46
74474;BME280;62922;-6.168;106.796;2023-06-24T13:06:11;100869.47;;;31.74;63.35
74474;BME280;62922;-6.168;106.796;2023-06-24T13:08:39;100855.91;;;31.68;63.12
74474;BME280;62922;-6.168;106.796;2023-06-24T13:11:07;100868.81;;;31.69;63.27
74474;BME280;62922;-6.168;106.796;2023-06-24T13:13:33;100831.88;;;31.44;63.21
74474;BME280;62922;-6.168;106.796;2023-06-24T13:16:00;100891.38;;;31.77;62.89
74474;BME280;62922;-6.168;106.796;2023-06-24T13:18:26;100889.72;;;31.76;63.22
74474;BME280;62922;-6.168;106.796;2023-06-24T13:20:52;100872.47;;;31.69;62.51
74474;BME280;62922;-6.168;106.796;2023-06-24T13:23:19;100867.53;;;31.57;63.01
74474;BME280;62922;-6.168;106.796;2023-06-24T13:25:45;100877.13;;;31.65;61.98
74474;BME280;62922;-6.168;106.796;2023-06-24T13:28:11;100868.53;;;31.61;62.17
74474;BME280;62922;-6.168;106.796;2023-06-24T13:30:38;100879.31;;;31.68;61.81
74474;BME280;62922;-6.168;106.796;2023-06-24T13:33:04;100887.56;;;31.73;62.38
74474;BME280;62922;-6.168;106.796;2023-06-24T13:35:30;100873.50;;;31.65;62.02
74474;BME280;62922;-6.168;106.796;2023-06-24T13:37:57;100838.88;;;31.47;61.87
74474;BME280;62922;-6.168;106.796;2023-06-24T13:40:24;100853.13;;;31.50;61.79
74474;BME280;62922;-6.168;106.796;2023-06-24T13:42:50;100887.78;;;31.68;62.66
74474;BME280;62922;-6.168;106.796;2023-06-24T13:45:17;100881.47;;;31.63;62.45
74474;BME280;62922;-6.168;106.796;2023-06-24T13:47:43;100878.31;;;31.55;63.11
74474;BME280;62922;-6.168;106.796;2023-06-24T13:50:10;100862.41;;;31.51;63.26
74474;BME280;62922;-6.168;106.796;2023-06-24T13:52:37;100860.59;;;31.46;63.71
74474;BME280;62922;-6.168;106.796;2023-06-24T13:55:04;100905.34;;;31.74;63.44
74474;BME280;62922;-6.168;106.796;2023-06-24T13:57:31;100866.56;;;31.45;62.72
74474;BME280;62922;-6.168;106.796;2023-06-24T13:59:57;100908.16;;;31.74;62.94
74474;BME280;62922;-6.168;106.796;2023-06-24T14:02:24;100902.69;;;31.69;63.16
74474;BME280;62922;-6.168;106.796;2023-06-24T14:04:50;100899.72;;;31.65;64.13
74474;BME280;62922;-6.168;106.796;2023-06-24T14:07:16;100882.81;;;31.56;64.15
74474;BME280;62922;-6.168;106.796;2023-06-24T14:09:43;100893.72;;;31.67;63.88
74474;BME280;62922;-6.168;106.796;2023-06-24T14:12:10;100885.59;;;31.65;64.07
74474;BME280;62922;-6.168;106.796;2023-06-24T14:14:36;100883.28;;;31.67;64.16
74474;BME280;62922;-6.168;106.796;2023-06-24T14:17:05;100874.50;;;31.60;63.90
74474;BME280;62922;-6.168;106.796;2023-06-24T14:19:35;100841.53;;;31.43;64.18
74474;BME280;62922;-6.168;106.796;2023-06-24T14:22:01;100885.59;;;31.65;64.51
74474;BME280;62922;-6.168;106.796;2023-06-24T14:24:28;100891.25;;;31.65;64.45
74474;BME280;62922;-6.168;106.796;2023-06-24T14:26:55;100895.06;;;31.69;64.71
74474;BME280;62922;-6.168;106.796;2023-06-24T14:29:21;100890.09;;;31.66;64.41
74474;BME280;62922;-6.168;106.796;2023-06-24T14:31:47;100851.31;;;31.46;65.04
74474;BME280;62922;-6.168;106.796;2023-06-24T14:34:14;100867.91;;;31.47;64.47
74474;BME280;62922;-6.168;106.796;2023-06-24T14:36:40;100903.19;;;31.71;64.93
74474;BME280;62922;-6.168;106.796;2023-06-24T14:39:06;100871.06;;;31.46;64.36
74474;BME280;62922;-6.168;106.796;2023-06-24T14:41:33;100877.66;;;31.50;65.07
74474;BME280;62922;-6.168;106.796;2023-06-24T14:43:59;100891.25;;;31.65;64.69
74474;BME280;62922;-6.168;106.796;2023-06-24T14:46:26;100847.84;;;31.40;64.70
74474;BME280;62922;-6.168;106.796;2023-06-24T14:48:52;100874.69;;;31.55;65.14
74474;BME280;62922;-6.168;106.796;2023-06-24T14:51:18;100885.59;;;31.65;65.03
74474;BME280;62922;-6.168;106.796;2023-06-24T14:53:44;100878.50;;;31.59;65.39
74474;BME280;62922;-6.168;106.796;2023-06-24T14:56:14;100855.09;;;31.50;64.56
74474;BME280;62922;-6.168;106.796;2023-06-24T14:58:40;100887.63;;;31.65;64.50
74474;BME280;62922;-6.168;106.796;2023-06-24T15:01:07;100880.50;;;31.58;64.77
74474;BME280;62922;-6.168;106.796;2023-06-24T15:03:36;100895.09;;;31.60;64.60
74474;BME280;62922;-6.168;106.796;2023-06-24T15:06:02;100902.03;;;31.63;64.50
74474;BME280;62922;-6.168;106.796;2023-06-24T15:08:31;100858.44;;;31.35;63.69
74474;BME280;62922;-6.168;106.796;2023-06-24T15:10:58;100907.19;;;31.61;63.56
74474;BME280;62922;-6.168;106.796;2023-06-24T15:13:24;100913.81;;;31.65;64.02
74474;BME280;62922;-6.168;106.796;2023-06-24T15:15:53;100890.13;;;31.49;63.83
74474;BME280;62922;-6.168;106.796;2023-06-24T23:37:25;100896.91;;;30.71;66.29
74474;BME280;62922;-6.168;106.796;2023-06-24T23:39:52;100886.63;;;30.66;66.88
74474;BME280;62922;-6.168;106.796;2023-06-24T23:42:19;100890.28;;;30.67;66.56
74474;BME280;62922;-6.168;106.796;2023-06-24T23:44:46;100859.94;;;30.47;66.54
74474;BME280;62922;-6.168;106.796;2023-06-24T23:47:13;100881.97;;;30.62;66.15
74474;BME280;62922;-6.168;106.796;2023-06-24T23:49:39;100855.94;;;30.39;66.25
74474;BME280;62922;-6.168;106.796;2023-06-24T23:52:06;100887.13;;;30.60;66.12
74474;BME280;62922;-6.168;106.796;2023-06-24T23:54:32;100858.94;;;30.43;65.99
74474;BME280;62922;-6.168;106.796;2023-06-24T23:56:59;100902.53;;;30.62;66.46
74474;BME280;62922;-6.168;106.796;2023-06-24T23:59:25;100896.72;;;30.59;65.96
